Time,TemperatureF,DewpointF,PressureIn,WindDirection,WindDirectionDegrees,WindSpeedMPH,WindSpeedGustMPH,Humidity,HourlyPrecipIn,Conditions,Clouds,dailyrainin,SoftwareType,DateUTC
2013-06-27 00:01:00,71.4,66.7,29.76,SE,128,0.0,0.0,85,0.00,,,0.00,Wunderground v.1.15,2013-06-27 04:01:00,
2013-06-27 00:03:00,71.3,66.6,29.76,SE,128,0.0,0.0,85,0.00,,,0.00,Wunderground v.1.15,2013-06-27 04:03:00,
2013-06-27 00:07:00,71.3,66.6,29.76,SE,128,0.0,0.0,85,0.00,,,0.00,Wunderground v.1.15,2013-06-27 04:07:00,
2013-06-27 00:13:00,71.1,66.4,29.76,SE,128,0.0,0.0,85,0.00,,,0.00,Wunderground v.1.15,2013-06-27 04:13:00,
2013-06-27 00:18:00,70.9,66.5,29.76,SE,128,0.0,0.0,86,0.00,,,0.00,Wunderground v.1.15,2013-06-27 04:18:00,
2013-06-27 00:23:00,70.8,66.4,29.76,SE,128,0.0,0.0,86,0.00,,,0.00,Wunderground v.1.15,2013-06-27 04:23:00,
2013-06-27 00:29:00,70.8,66.4,29.75,SE,128,0.0,0.0,86,0.00,,,0.00,Wunderground v.1.15,2013-06-27 04:29:00,
2013-06-27 00:35:00,70.7,66.6,29.75,SE,128,0.0,0.0,87,0.00,,,0.00,Wunderground v.1.15,2013-06-27 04:35:00,
2013-06-27 00:41:00,70.6,66.5,29.75,SE,128,0.0,0.0,87,0.00,,,0.00,Wunderground v.1.15,2013-06-27 04:41:00,
2013-06-27 00:46:00,70.6,66.5,29.75,SE,128,0.0,0.0,87,0.00,,,0.00,Wunderground v.1.15,2013-06-27 04:46:00,
2013-06-27 00:55:00,70.5,66.8,29.75,SE,128,0.0,0.0,88,0.00,,,0.00,Wunderground v.1.15,2013-06-27 04:55:00,
2013-06-27 01:01:00,70.4,66.7,29.75,SE,128,0.0,0.0,88,0.00,,,0.00,Wunderground v.1.15,2013-06-27 05:01:00,
2013-06-27 01:08:00,70.3,66.9,29.75,SE,128,0.0,0.0,89,0.00,,,0.00,Wunderground v.1.15,2013-06-27 05:08:00,
2013-06-27 01:17:00,70.3,66.9,29.74,SE,128,0.0,0.0,89,0.00,,,0.00,Wunderground v.1.15,2013-06-27 05:17:00,
2013-06-27 01:25:00,70.4,67.3,29.74,SE,128,0.0,0.0,90,0.00,,,0.00,Wunderground v.1.15,2013-06-27 05:25:00,
2013-06-27 01:31:00,70.4,67.3,29.75,SE,128,0.0,0.0,90,0.00,,,0.00,Wunderground v.1.15,2013-06-27 05:31:00,
2013-06-27 01:37:00,70.4,67.3,29.75,SE,128,0.0,0.0,90,0.00,,,0.00,Wunderground v.1.15,2013-06-27 05:37:00,
2013-06-27 01:47:00,70.6,67.8,29.75,SE,128,0.0,0.0,91,0.00,,,0.00,Wunderground v.1.15,2013-06-27 05:47:00,
2013-06-27 01:54:00,70.9,67.8,29.74,SE,128,0.0,0.0,90,0.00,,,0.00,Wunderground v.1.15,2013-06-27 05:54:00,
2013-06-27 02:00:00,71.0,67.9,29.73,SE,128,0.0,0.0,90,0.00,,,0.00,Wunderground v.1.15,2013-06-27 06:00:00,
2013-06-27 02:05:00,71.1,67.7,29.73,SE,128,0.0,0.0,89,0.00,,,0.00,Wunderground v.1.15,2013-06-27 06:05:00,
2013-06-27 02:11:00,71.1,67.7,29.73,SE,128,0.0,0.0,89,0.00,,,0.00,Wunderground v.1.15,2013-06-27 06:11:00,
2013-06-27 02:16:00,71.2,68.1,29.73,SE,128,0.0,0.0,90,0.00,,,0.00,Wunderground v.1.15,2013-06-27 06:16:00,
2013-06-27 02:25:00,71.2,67.8,29.73,SE,128,0.0,0.0,89,0.00,,,0.00,Wunderground v.1.15,2013-06-27 06:25:00,
2013-06-27 02:31:00,71.1,67.7,29.73,SE,128,0.0,0.0,89,0.00,,,0.00,Wunderground v.1.15,2013-06-27 06:31:00,
2013-06-27 02:37:00,71.1,67.7,29.72,SE,128,0.0,0.0,89,0.00,,,0.00,Wunderground v.1.15,2013-06-27 06:37:00,
2013-06-27 02:43:00,71.0,67.6,29.72,SE,128,0.0,0.0,89,0.00,,,0.00,Wunderground v.1.15,2013-06-27 06:43:00,
2013-06-27 02:48:00,70.9,67.5,29.72,SE,128,0.0,0.0,89,0.00,,,0.00,Wunderground v.1.15,2013-06-27 06:48:00,
2013-06-27 02:54:00,70.8,67.4,29.72,SE,128,0.0,0.0,89,0.00,,,0.00,Wunderground v.1.15,2013-06-27 06:54:00,
2013-06-27 03:00:00,70.7,67.3,29.72,SE,128,0.0,0.0,89,0.00,,,0.00,Wunderground v.1.15,2013-06-27 07:00:00,
2013-06-27 03:05:00,70.7,67.6,29.72,SE,128,0.0,0.0,90,0.00,,,0.00,Wunderground v.1.15,2013-06-27 07:05:00,
2013-06-27 03:11:00,70.6,67.5,29.72,SE,128,0.0,0.0,90,0.00,,,0.00,Wunderground v.1.15,2013-06-27 07:11:00,
2013-06-27 03:17:00,70.4,67.3,29.72,SE,128,0.0,0.0,90,0.00,,,0.00,Wunderground v.1.15,2013-06-27 07:17:00,
2013-06-27 03:29:00,70.2,67.4,29.72,SE,128,0.0,0.0,91,0.00,,,0.00,Wunderground v.1.15,2013-06-27 07:29:00,
2013-06-27 03:36:00,70.1,67.3,29.72,SE,128,0.0,0.0,91,0.00,,,0.00,Wunderground v.1.15,2013-06-27 07:36:00,
2013-06-27 03:46:00,70.0,67.3,29.73,SE,128,0.0,0.0,91,0.00,,,0.00,Wunderground v.1.15,2013-06-27 07:46:00,
2013-06-27 03:55:00,69.9,67.5,29.73,SE,128,0.0,0.0,92,0.00,,,0.00,Wunderground v.1.15,2013-06-27 07:55:00,
2013-06-27 04:01:00,69.9,67.5,29.73,SE,128,0.0,0.0,92,0.00,,,0.00,Wunderground v.1.15,2013-06-27 08:01:00,
2013-06-27 04:06:00,69.9,67.5,29.73,SE,128,0.0,0.0,92,0.00,,,0.00,Wunderground v.1.15,2013-06-27 08:06:00,
2013-06-27 04:14:00,69.8,67.4,29.73,SE,128,0.0,0.0,92,0.00,,,0.00,Wunderground v.1.15,2013-06-27 08:14:00,
2013-06-27 04:20:00,69.7,67.3,29.73,SE,128,0.0,0.0,92,0.00,,,0.00,Wunderground v.1.15,2013-06-27 08:20:00,
2013-06-27 04:27:00,69.5,67.1,29.73,SE,128,0.0,0.0,92,0.00,,,0.00,Wunderground v.1.15,2013-06-27 08:27:00,
2013-06-27 04:40:00,69.2,66.8,29.73,SE,128,0.0,0.0,92,0.00,,,0.00,Wunderground v.1.15,2013-06-27 08:40:00,
2013-06-27 04:45:00,69.1,66.7,29.73,SE,128,0.0,0.0,92,0.00,,,0.00,Wunderground v.1.15,2013-06-27 08:45:00,
2013-06-27 04:50:00,69.0,66.6,29.73,SE,128,0.0,0.0,92,0.00,,,0.00,Wunderground v.1.15,2013-06-27 08:50:00,
2013-06-27 04:56:00,68.8,66.7,29.73,SE,128,0.0,0.0,93,0.00,,,0.00,Wunderground v.1.15,2013-06-27 08:56:00,
2013-06-27 05:01:00,68.7,66.6,29.73,SE,128,0.0,0.0,93,0.00,,,0.00,Wunderground v.1.15,2013-06-27 09:01:00,
2013-06-27 05:07:00,68.6,66.5,29.73,SE,128,0.0,0.0,93,0.00,,,0.00,Wunderground v.1.15,2013-06-27 09:07:00,
2013-06-27 05:13:00,68.5,66.4,29.73,SE,128,0.0,0.0,93,0.00,,,0.00,Wunderground v.1.15,2013-06-27 09:13:00,
2013-06-27 05:18:00,68.4,66.3,29.73,SE,128,0.0,0.0,93,0.00,,,0.00,Wunderground v.1.15,2013-06-27 09:18:00,
2013-06-27 05:24:00,68.3,66.2,29.73,SE,128,0.0,0.0,93,0.00,,,0.00,Wunderground v.1.15,2013-06-27 09:24:00,
2013-06-27 05:30:00,68.2,66.4,29.73,SSE,163,0.0,0.0,94,0.00,,,0.00,Wunderground v.1.15,2013-06-27 09:30:00,
2013-06-27 05:35:00,68.1,66.3,29.73,WNW,296,0.0,0.0,94,0.00,,,0.00,Wunderground v.1.15,2013-06-27 09:35:00,
2013-06-27 05:40:00,68.0,66.2,29.73,West,265,0.0,0.0,94,0.00,,,0.00,Wunderground v.1.15,2013-06-27 09:40:00,
2013-06-27 05:45:00,68.0,66.2,29.73,West,265,0.0,0.0,94,0.00,,,0.00,Wunderground v.1.15,2013-06-27 09:45:00,
2013-06-27 05:51:00,68.0,66.2,29.73,West,265,0.0,0.0,94,0.00,,,0.00,Wunderground v.1.15,2013-06-27 09:51:00,
2013-06-27 05:56:00,68.0,66.2,29.73,West,265,0.0,0.0,94,0.00,,,0.00,Wunderground v.1.15,2013-06-27 09:56:00,
2013-06-27 06:03:00,67.9,66.1,29.73,West,264,0.0,0.0,94,0.00,,,0.00,Wunderground v.1.15,2013-06-27 10:03:00,
2013-06-27 06:09:00,67.9,66.1,29.73,West,264,0.0,0.0,94,0.00,,,0.00,Wunderground v.1.15,2013-06-27 10:09:00,
2013-06-27 06:14:00,67.9,66.4,29.73,West,265,0.0,0.0,95,0.00,,,0.00,Wunderground v.1.15,2013-06-27 10:14:00,
2013-06-27 06:19:00,67.8,66.3,29.73,West,265,0.0,0.0,95,0.00,,,0.00,Wunderground v.1.15,2013-06-27 10:19:00,
2013-06-27 06:25:00,67.8,66.3,29.73,West,265,0.0,0.0,95,0.00,,,0.00,Wunderground v.1.15,2013-06-27 10:25:00,
2013-06-27 06:30:00,67.8,66.3,29.73,West,264,0.0,0.0,95,0.00,,,0.00,Wunderground v.1.15,2013-06-27 10:30:00,
2013-06-27 06:37:00,67.9,66.4,29.74,West,265,0.0,0.0,95,0.00,,,0.00,Wunderground v.1.15,2013-06-27 10:37:00,
2013-06-27 06:45:00,68.0,66.5,29.74,West,265,0.0,0.0,95,0.00,,,0.00,Wunderground v.1.15,2013-06-27 10:45:00,
2013-06-27 06:51:00,68.1,66.6,29.74,West,264,0.0,0.0,95,0.00,,,0.00,Wunderground v.1.15,2013-06-27 10:51:00,
2013-06-27 06:57:00,68.3,67.1,29.74,West,265,0.0,0.0,96,0.00,,,0.00,Wunderground v.1.15,2013-06-27 10:57:00,
2013-06-27 07:04:00,68.6,67.4,29.74,West,265,0.0,0.0,96,0.00,,,0.00,Wunderground v.1.15,2013-06-27 11:04:00,
2013-06-27 07:10:00,68.8,67.3,29.75,West,267,0.0,0.0,95,0.00,,,0.00,Wunderground v.1.15,2013-06-27 11:10:00,
2013-06-27 07:18:00,68.9,67.7,29.74,West,267,0.0,0.0,96,0.00,,,0.00,Wunderground v.1.15,2013-06-27 11:18:00,
2013-06-27 07:23:00,68.9,67.7,29.74,West,267,0.0,0.0,96,0.00,,,0.00,Wunderground v.1.15,2013-06-27 11:23:00,
2013-06-27 07:29:00,69.0,67.8,29.74,West,267,0.0,0.0,96,0.00,,,0.00,Wunderground v.1.15,2013-06-27 11:29:00,
2013-06-27 07:34:00,69.1,67.9,29.73,West,267,0.0,0.0,96,0.00,,,0.00,Wunderground v.1.15,2013-06-27 11:34:00,
2013-06-27 07:40:00,69.2,68.0,29.73,West,267,0.0,0.0,96,0.00,,,0.00,Wunderground v.1.15,2013-06-27 11:40:00,
2013-06-27 07:45:00,69.2,68.0,29.73,West,267,0.0,0.0,96,0.00,,,0.00,Wunderground v.1.15,2013-06-27 11:45:00,
2013-06-27 07:52:00,69.2,67.7,29.73,West,267,0.0,0.0,95,0.00,,,0.00,Wunderground v.1.15,2013-06-27 11:52:00,
2013-06-27 07:58:00,69.2,67.7,29.72,West,267,0.0,0.0,95,0.00,,,0.00,Wunderground v.1.15,2013-06-27 11:58:00,
2013-06-27 08:03:00,69.3,67.8,29.72,West,267,0.0,0.0,95,0.00,,,0.00,Wunderground v.1.15,2013-06-27 12:03:00,
2013-06-27 08:09:00,69.5,68.0,29.72,West,267,0.0,0.0,95,0.00,,,0.00,Wunderground v.1.15,2013-06-27 12:09:00,
2013-06-27 08:14:00,69.5,68.0,29.72,West,267,0.0,0.0,95,0.00,,,0.00,Wunderground v.1.15,2013-06-27 12:14:00,
2013-06-27 08:19:00,69.6,68.1,29.72,West,267,0.0,0.0,95,0.00,,,0.00,Wunderground v.1.15,2013-06-27 12:19:00,
2013-06-27 08:25:00,69.8,68.3,29.72,South,175,0.0,0.0,95,0.00,,,0.00,Wunderground v.1.15,2013-06-27 12:25:00,
2013-06-27 08:31:00,70.1,68.6,29.73,South,175,0.0,0.0,95,0.00,,,0.00,Wunderground v.1.15,2013-06-27 12:31:00,
2013-06-27 08:36:00,70.3,68.5,29.73,South,175,0.0,0.0,94,0.00,,,0.00,Wunderground v.1.15,2013-06-27 12:36:00,
2013-06-27 08:42:00,70.8,69.0,29.73,South,175,0.0,0.0,94,0.00,,,0.00,Wunderground v.1.15,2013-06-27 12:42:00,
2013-06-27 08:47:00,71.2,69.1,29.73,South,175,0.0,0.0,93,0.00,,,0.00,Wunderground v.1.15,2013-06-27 12:47:00,
2013-06-27 08:53:00,71.7,69.3,29.73,South,175,0.0,0.0,92,0.00,,,0.00,Wunderground v.1.15,2013-06-27 12:53:00,
2013-06-27 08:59:00,72.4,69.6,29.73,SE,126,0.0,0.0,91,0.00,,,0.00,Wunderground v.1.15,2013-06-27 12:59:00,
2013-06-27 09:04:00,73.1,69.7,29.73,SE,126,0.0,0.0,89,0.00,,,0.00,Wunderground v.1.15,2013-06-27 13:04:00,
2013-06-27 09:10:00,73.8,69.7,29.73,SE,125,0.0,0.0,87,0.00,,,0.00,Wunderground v.1.15,2013-06-27 13:10:00,
2013-06-27 09:15:00,74.4,69.9,29.72,ENE,65,0.0,2.0,86,0.00,,,0.00,Wunderground v.1.15,2013-06-27 13:15:00,
2013-06-27 09:22:00,74.8,69.6,29.72,ENE,65,0.0,3.0,84,0.00,,,0.00,Wunderground v.1.15,2013-06-27 13:22:00,
2013-06-27 09:27:00,75.4,70.6,29.73,ENE,65,0.0,3.0,85,0.00,,,0.00,Wunderground v.1.15,2013-06-27 13:27:00,
2013-06-27 09:32:00,75.5,70.3,29.72,ENE,65,0.0,0.0,84,0.00,,,0.00,Wunderground v.1.15,2013-06-27 13:32:00,
2013-06-27 09:38:00,75.6,69.7,29.72,ENE,65,0.0,0.0,82,0.00,,,0.00,Wunderground v.1.15,2013-06-27 13:38:00,
2013-06-27 09:43:00,75.7,70.2,29.72,ENE,65,0.0,0.0,83,0.00,,,0.00,Wunderground v.1.15,2013-06-27 13:43:00,
2013-06-27 09:48:00,76.0,70.8,29.72,ENE,64,0.0,0.0,84,0.00,,,0.00,Wunderground v.1.15,2013-06-27 13:48:00,
2013-06-27 09:54:00,76.5,70.9,29.72,ENE,65,0.0,0.0,83,0.00,,,0.00,Wunderground v.1.15,2013-06-27 13:54:00,
2013-06-27 09:59:00,76.7,70.8,29.72,ENE,64,0.0,0.0,82,0.00,,,0.00,Wunderground v.1.15,2013-06-27 13:59:00,
2013-06-27 10:05:00,77.1,71.9,29.72,ENE,64,0.0,0.0,84,0.00,,,0.00,Wunderground v.1.15,2013-06-27 14:05:00,
2013-06-27 10:11:00,77.5,71.6,29.72,ENE,64,0.0,0.0,82,0.00,,,0.00,Wunderground v.1.15,2013-06-27 14:11:00,
2013-06-27 10:17:00,77.9,71.6,29.72,ENE,65,0.0,0.0,81,0.00,,,0.00,Wunderground v.1.15,2013-06-27 14:17:00,
2013-06-27 10:22:00,77.9,70.5,29.71,NE,53,0.0,0.0,78,0.00,,,0.00,Wunderground v.1.15,2013-06-27 14:22:00,
2013-06-27 10:28:00,77.9,70.9,29.72,ENE,59,0.0,0.0,79,0.00,,,0.00,Wunderground v.1.15,2013-06-27 14:28:00,
2013-06-27 10:33:00,77.9,70.9,29.71,SSE,167,0.0,0.0,79,0.00,,,0.00,Wunderground v.1.15,2013-06-27 14:33:00,
2013-06-27 10:39:00,78.0,71.0,29.71,SSE,167,0.0,0.0,79,0.00,,,0.00,Wunderground v.1.15,2013-06-27 14:39:00,
2013-06-27 10:44:00,78.0,70.6,29.72,SSE,167,0.0,0.0,78,0.00,,,0.00,Wunderground v.1.15,2013-06-27 14:44:00,
2013-06-27 10:50:00,78.1,70.7,29.72,SSE,167,0.0,0.0,78,0.00,,,0.00,Wunderground v.1.15,2013-06-27 14:50:00,
2013-06-27 10:55:00,78.5,71.4,29.72,SSE,167,0.0,0.0,79,0.00,,,0.00,Wunderground v.1.15,2013-06-27 14:55:00,
2013-06-27 11:01:00,79.1,72.4,29.71,SSE,167,0.0,0.0,80,0.00,,,0.00,Wunderground v.1.15,2013-06-27 15:01:00,
2013-06-27 11:07:00,79.7,71.5,29.72,SSE,167,0.0,0.0,76,0.00,,,0.00,Wunderground v.1.15,2013-06-27 15:07:00,
2013-06-27 11:12:00,80.0,71.8,29.72,SSE,167,0.0,0.0,76,0.00,,,0.00,Wunderground v.1.15,2013-06-27 15:12:00,
2013-06-27 11:18:00,80.0,71.4,29.71,East,84,0.0,1.0,75,0.00,,,0.00,Wunderground v.1.15,2013-06-27 15:18:00,
2013-06-27 11:24:00,79.9,71.3,29.72,East,83,0.0,1.0,75,0.00,,,0.00,Wunderground v.1.15,2013-06-27 15:24:00,
2013-06-27 11:30:00,80.1,71.5,29.72,East,83,0.0,0.0,75,0.00,,,0.00,Wunderground v.1.15,2013-06-27 15:30:00,
2013-06-27 11:35:00,80.3,71.6,29.72,East,84,0.0,0.0,75,0.00,,,0.00,Wunderground v.1.15,2013-06-27 15:35:00,
2013-06-27 11:41:00,80.4,71.3,29.72,East,84,0.0,0.0,74,0.00,,,0.00,Wunderground v.1.15,2013-06-27 15:41:00,
2013-06-27 11:52:00,81.3,71.8,29.72,SE,131,0.0,0.0,73,0.00,,,0.00,Wunderground v.1.15,2013-06-27 15:52:00,
2013-06-27 11:58:00,82.0,72.5,29.72,South,191,0.0,3.0,73,0.00,,,0.00,Wunderground v.1.15,2013-06-27 15:58:00,
2013-06-27 12:03:00,82.1,71.8,29.72,SSW,192,0.0,2.0,71,0.00,,,0.00,Wunderground v.1.15,2013-06-27 16:03:00,
2013-06-27 12:09:00,82.3,72.0,29.72,South,183,0.0,0.0,71,0.00,,,0.00,Wunderground v.1.15,2013-06-27 16:09:00,
2013-06-27 12:14:00,82.4,72.5,29.72,SSW,196,0.0,1.0,72,0.00,,,0.00,Wunderground v.1.15,2013-06-27 16:14:00,
2013-06-27 12:20:00,82.1,72.2,29.72,SSW,196,0.0,0.0,72,0.00,,,0.00,Wunderground v.1.15,2013-06-27 16:20:00,
2013-06-27 12:25:00,82.0,72.5,29.71,SSW,196,0.0,0.0,73,0.00,,,0.00,Wunderground v.1.15,2013-06-27 16:25:00,
2013-06-27 12:31:00,81.8,71.5,29.71,SSW,196,0.0,0.0,71,0.00,,,0.00,Wunderground v.1.15,2013-06-27 16:31:00,
2013-06-27 12:36:00,81.8,71.9,29.71,SSW,196,0.0,0.0,72,0.00,,,0.00,Wunderground v.1.15,2013-06-27 16:36:00,
2013-06-27 12:42:00,82.0,71.7,29.70,SSW,196,0.0,3.0,71,0.00,,,0.00,Wunderground v.1.15,2013-06-27 16:42:00,
2013-06-27 12:47:00,82.4,72.0,29.70,SSW,194,0.0,3.0,71,0.00,,,0.00,Wunderground v.1.15,2013-06-27 16:47:00,
2013-06-27 12:54:00,83.2,73.2,29.70,SSW,207,1.0,1.0,72,0.00,,,0.00,Wunderground v.1.15,2013-06-27 16:54:00,
2013-06-27 12:59:00,83.7,73.7,29.70,SSE,150,1.0,1.0,72,0.00,,,0.00,Wunderground v.1.15,2013-06-27 16:59:00,
2013-06-27 13:04:00,84.0,72.7,29.70,South,174,1.0,1.0,69,0.00,,,0.00,Wunderground v.1.15,2013-06-27 17:04:00,
2013-06-27 13:10:00,84.3,73.9,29.70,SSW,195,0.0,0.0,71,0.00,,,0.00,Wunderground v.1.15,2013-06-27 17:10:00,
2013-06-27 13:16:00,84.5,71.9,29.69,SSW,195,0.0,1.0,66,0.00,,,0.00,Wunderground v.1.15,2013-06-27 17:16:00,
2013-06-27 13:23:00,84.7,72.5,29.69,SSW,207,1.0,1.0,67,0.00,,,0.00,Wunderground v.1.15,2013-06-27 17:23:00,
2013-06-27 13:28:00,84.3,72.1,29.68,SSW,194,1.0,4.0,67,0.00,,,0.00,Wunderground v.1.15,2013-06-27 17:28:00,
2013-06-27 13:33:00,84.3,72.1,29.68,SSW,196,1.0,1.0,67,0.00,,,0.00,Wunderground v.1.15,2013-06-27 17:33:00,
2013-06-27 13:39:00,84.3,73.0,29.68,SW,219,1.0,2.0,69,0.00,,,0.00,Wunderground v.1.15,2013-06-27 17:39:00,
2013-06-27 13:44:00,83.6,72.8,29.68,SW,217,3.0,6.0,70,0.00,,,0.00,Wunderground v.1.15,2013-06-27 17:44:00,
2013-06-27 13:49:00,83.1,73.1,29.68,SSW,203,3.0,3.0,72,0.00,,,0.00,Wunderground v.1.15,2013-06-27 17:49:00,
2013-06-27 13:54:00,83.0,73.4,29.67,NW,304,3.0,12.0,73,0.00,,,0.00,Wunderground v.1.15,2013-06-27 17:54:00,
2013-06-27 14:00:00,82.6,72.7,29.67,SW,219,2.0,6.0,72,0.00,,,0.00,Wunderground v.1.15,2013-06-27 18:00:00,
2013-06-27 14:05:00,82.0,72.5,29.67,SSW,207,2.0,6.0,73,0.00,,,0.00,Wunderground v.1.15,2013-06-27 18:05:00,
2013-06-27 14:10:00,81.8,73.1,29.67,SSW,209,3.0,3.0,75,0.00,,,0.00,Wunderground v.1.15,2013-06-27 18:10:00,
2013-06-27 14:15:00,82.1,73.8,29.67,South,178,2.0,5.0,76,0.00,,,0.00,Wunderground v.1.15,2013-06-27 18:15:00,
2013-06-27 14:21:00,82.4,72.5,29.67,SSE,164,4.0,6.0,72,0.00,,,0.00,Wunderground v.1.15,2013-06-27 18:21:00,
2013-06-27 14:26:00,82.3,72.4,29.67,SSW,200,3.0,6.0,72,0.00,,,0.00,Wunderground v.1.15,2013-06-27 18:26:00,
2013-06-27 14:32:00,82.1,72.6,29.67,SSW,206,1.0,3.0,73,0.00,,,0.00,Wunderground v.1.15,2013-06-27 18:32:00,
2013-06-27 14:38:00,82.1,71.8,29.67,SSW,203,1.0,5.0,71,0.00,,,0.00,Wunderground v.1.15,2013-06-27 18:38:00,
2013-06-27 14:43:00,81.9,71.6,29.66,SSW,205,3.0,4.0,71,0.00,,,0.00,Wunderground v.1.15,2013-06-27 18:43:00,
2013-06-27 14:49:00,81.7,72.2,29.66,SSW,207,3.0,3.0,73,0.00,,,0.00,Wunderground v.1.15,2013-06-27 18:49:00,
2013-06-27 14:54:00,82.1,72.6,29.66,SW,222,2.0,4.0,73,0.00,,,0.00,Wunderground v.1.15,2013-06-27 18:54:00,
2013-06-27 14:59:00,82.5,73.0,29.66,South,189,1.0,3.0,73,0.00,,,0.00,Wunderground v.1.15,2013-06-27 18:59:00,
2013-06-27 15:05:00,82.6,71.8,29.66,South,187,2.0,7.0,70,0.00,,,0.00,Wunderground v.1.15,2013-06-27 19:05:00,
2013-06-27 15:10:00,82.5,72.6,29.66,SSW,204,3.0,5.0,72,0.00,,,0.00,Wunderground v.1.15,2013-06-27 19:10:00,
2013-06-27 15:15:00,82.1,72.2,29.66,South,171,3.0,5.0,72,0.00,,,0.00,Wunderground v.1.15,2013-06-27 19:15:00,
2013-06-27 15:21:00,81.4,72.3,29.65,WSW,237,2.0,11.0,74,0.00,,,0.00,Wunderground v.1.15,2013-06-27 19:21:00,
2013-06-27 15:26:00,80.7,72.0,29.65,SSW,195,2.0,11.0,75,0.00,,,0.00,Wunderground v.1.15,2013-06-27 19:26:00,
2013-06-27 15:32:00,79.9,71.7,29.65,South,189,2.0,3.0,76,0.00,,,0.00,Wunderground v.1.15,2013-06-27 19:32:00,
2013-06-27 15:38:00,79.1,70.9,29.65,South,190,2.0,4.0,76,0.00,,,0.00,Wunderground v.1.15,2013-06-27 19:38:00,
2013-06-27 15:44:00,78.3,69.3,29.64,SW,234,3.0,9.0,74,0.00,,,0.00,Wunderground v.1.15,2013-06-27 19:44:00,
2013-06-27 15:50:00,77.5,70.5,29.64,ESE,123,2.0,2.0,79,0.26,,,0.07,Wunderground v.1.15,2013-06-27 19:50:00,
2013-06-27 15:55:00,76.6,70.7,29.63,SE,133,1.0,2.0,82,0.40,,,0.11,Wunderground v.1.15,2013-06-27 19:55:00,
2013-06-27 16:00:00,75.7,70.9,29.62,SE,133,0.0,1.0,85,0.41,,,0.17,Wunderground v.1.15,2013-06-27 20:00:00,
2013-06-27 16:05:00,74.9,70.8,29.62,SSW,204,0.0,2.0,87,0.71,,,0.22,Wunderground v.1.15,2013-06-27 20:05:00,
2013-06-27 16:11:00,74.4,70.6,29.63,NW,318,0.0,0.0,88,0.51,,,0.31,Wunderground v.1.15,2013-06-27 20:11:00,
2013-06-27 16:16:00,73.9,70.5,29.64,NNW,340,1.0,5.0,89,0.10,,,0.31,Wunderground v.1.15,2013-06-27 20:16:00,
2013-06-27 16:22:00,73.0,69.6,29.66,NNW,342,3.0,7.0,89,0.05,,,0.31,Wunderground v.1.15,2013-06-27 20:22:00,
2013-06-27 16:28:00,70.8,67.4,29.70,NE,52,9.0,24.0,89,1.05,,,0.46,Wunderground v.1.15,2013-06-27 20:28:00,
2013-06-27 19:32:00,65.9,64.4,29.70,SW,214,1.0,30.0,95,0.00,,,1.64,Wunderground v.1.15,2013-06-27 23:32:00,
2013-06-27 19:38:00,65.8,64.3,29.70,SSW,213,0.0,30.0,95,0.00,,,1.64,Wunderground v.1.15,2013-06-27 23:38:00,
2013-06-27 19:43:00,65.7,64.2,29.70,West,271,1.0,30.0,95,0.00,,,1.64,Wunderground v.1.15,2013-06-27 23:43:00,
2013-06-27 19:49:00,65.6,64.1,29.69,West,259,0.0,0.0,95,0.00,,,1.65,Wunderground v.1.15,2013-06-27 23:49:00,
2013-06-27 19:55:00,65.6,64.1,29.69,West,259,0.0,0.0,95,0.00,,,1.65,Wunderground v.1.15,2013-06-27 23:55:00,
2013-06-27 20:01:00,65.6,64.1,29.68,SW,218,1.0,1.0,95,0.00,,,1.65,Wunderground v.1.15,2013-06-28 00:01:00,
2013-06-27 20:06:00,65.7,64.2,29.69,SW,219,1.0,1.0,95,0.00,,,1.65,Wunderground v.1.15,2013-06-28 00:06:00,
2013-06-27 20:12:00,65.7,64.2,29.69,SW,219,0.0,0.0,95,0.00,,,1.65,Wunderground v.1.15,2013-06-28 00:12:00,
2013-06-27 20:17:00,65.8,64.3,29.70,SW,219,0.0,0.0,95,0.00,,,1.65,Wunderground v.1.15,2013-06-28 00:17:00,
2013-06-27 20:23:00,65.8,64.3,29.70,SW,219,0.0,0.0,95,0.00,,,1.65,Wunderground v.1.15,2013-06-28 00:23:00,
2013-06-27 20:29:00,65.8,64.3,29.70,SW,219,0.0,0.0,95,0.00,,,1.65,Wunderground v.1.15,2013-06-28 00:29:00,
2013-06-27 20:35:00,65.8,64.3,29.69,SW,219,0.0,0.0,95,0.00,,,1.65,Wunderground v.1.15,2013-06-28 00:35:00,
2013-06-27 20:41:00,65.9,64.4,29.69,SW,219,0.0,0.0,95,0.00,,,1.65,Wunderground v.1.15,2013-06-28 00:41:00,
2013-06-27 20:46:00,65.9,64.4,29.69,SW,219,0.0,0.0,95,0.00,,,1.65,Wunderground v.1.15,2013-06-28 00:46:00,
2013-06-27 20:52:00,65.8,64.3,29.69,SW,219,0.0,0.0,95,0.00,,,1.65,Wunderground v.1.15,2013-06-28 00:52:00,
2013-06-27 20:58:00,65.8,64.3,29.68,SW,218,0.0,0.0,95,0.00,,,1.65,Wunderground v.1.15,2013-06-28 00:58:00,
2013-06-27 21:03:00,65.8,64.3,29.68,SW,219,0.0,0.0,95,0.00,,,1.65,Wunderground v.1.15,2013-06-28 01:03:00,
2013-06-27 21:09:00,65.8,64.3,29.68,NNW,329,0.0,0.0,95,0.00,,,1.65,Wunderground v.1.15,2013-06-28 01:09:00,
2013-06-27 21:15:00,65.7,64.5,29.68,NNE,15,0.0,0.0,96,0.00,,,1.65,Wunderground v.1.15,2013-06-28 01:15:00,
2013-06-27 21:21:00,65.7,64.5,29.67,NNW,338,0.0,0.0,96,0.00,,,1.65,Wunderground v.1.15,2013-06-28 01:21:00,
2013-06-27 21:26:00,65.7,64.5,29.67,NNW,339,0.0,0.0,96,0.00,,,1.65,Wunderground v.1.15,2013-06-28 01:26:00,
2013-06-27 21:31:00,65.7,64.5,29.67,NNW,338,0.0,0.0,96,0.00,,,1.65,Wunderground v.1.15,2013-06-28 01:31:00,
2013-06-27 21:36:00,65.8,64.6,29.67,NNW,339,0.0,0.0,96,0.00,,,1.65,Wunderground v.1.15,2013-06-28 01:36:00,
2013-06-27 21:42:00,65.8,64.6,29.66,NNW,339,0.0,0.0,96,0.00,,,1.65,Wunderground v.1.15,2013-06-28 01:42:00,
2013-06-27 21:48:00,65.7,64.5,29.67,NNW,339,0.0,0.0,96,0.00,,,1.65,Wunderground v.1.15,2013-06-28 01:48:00,
2013-06-27 21:54:00,65.8,64.6,29.67,NNW,338,0.0,3.0,96,0.00,,,1.65,Wunderground v.1.15,2013-06-28 01:54:00,
2013-06-27 22:00:00,65.7,64.5,29.67,NNW,331,1.0,1.0,96,0.00,,,1.65,Wunderground v.1.15,2013-06-28 02:00:00,
2013-06-27 22:06:00,65.7,64.5,29.67,NNW,330,1.0,2.0,96,0.00,,,1.65,Wunderground v.1.15,2013-06-28 02:06:00,
2013-06-27 22:11:00,65.7,64.5,29.67,NNW,330,0.0,1.0,96,0.00,,,1.65,Wunderground v.1.15,2013-06-28 02:11:00,
2013-06-27 22:16:00,65.6,64.4,29.67,NNW,330,0.0,2.0,96,0.00,,,1.65,Wunderground v.1.15,2013-06-28 02:16:00,
2013-06-27 22:22:00,65.6,64.4,29.66,NNW,330,1.0,4.0,96,0.00,,,1.65,Wunderground v.1.15,2013-06-28 02:22:00,
2013-06-27 22:27:00,65.6,64.4,29.66,NW,311,1.0,4.0,96,0.00,,,1.65,Wunderground v.1.15,2013-06-28 02:27:00,
2013-06-27 22:33:00,65.5,64.3,29.65,NW,308,1.0,1.0,96,0.00,,,1.65,Wunderground v.1.15,2013-06-28 02:33:00,
2013-06-27 22:39:00,65.4,64.2,29.64,NW,308,0.0,1.0,96,0.00,,,1.65,Wunderground v.1.15,2013-06-28 02:39:00,
2013-06-27 22:45:00,65.4,64.2,29.64,NW,307,0.0,0.0,96,0.00,,,1.65,Wunderground v.1.15,2013-06-28 02:45:00,
2013-06-27 22:51:00,65.3,64.1,29.64,NW,307,0.0,2.0,96,0.00,,,1.65,Wunderground v.1.15,2013-06-28 02:51:00,
2013-06-27 22:56:00,65.4,64.2,29.64,NW,308,0.0,2.0,96,0.00,,,1.65,Wunderground v.1.15,2013-06-28 02:56:00,
2013-06-27 23:02:00,65.4,64.2,29.64,NW,307,0.0,0.0,96,0.00,,,1.65,Wunderground v.1.15,2013-06-28 03:02:00,
2013-06-27 23:07:00,65.3,64.1,29.64,NW,308,0.0,0.0,96,0.00,,,1.65,Wunderground v.1.15,2013-06-28 03:07:00,
2013-06-27 23:13:00,65.3,64.1,29.64,NW,308,0.0,0.0,96,0.00,,,1.65,Wunderground v.1.15,2013-06-28 03:13:00,
2013-06-27 23:20:00,65.2,64.0,29.64,NW,307,0.0,0.0,96,0.00,,,1.65,Wunderground v.1.15,2013-06-28 03:20:00,
2013-06-27 23:26:00,65.0,63.8,29.64,NW,308,0.0,0.0,96,0.00,,,1.65,Wunderground v.1.15,2013-06-28 03:26:00,
2013-06-27 23:31:00,64.8,63.6,29.64,NW,307,0.0,0.0,96,0.00,,,1.65,Wunderground v.1.15,2013-06-28 03:31:00,
2013-06-27 23:36:00,64.7,63.5,29.64,NW,308,0.0,0.0,96,0.00,,,1.65,Wunderground v.1.15,2013-06-28 03:36:00,
2013-06-27 23:42:00,64.5,63.3,29.64,NW,308,0.0,0.0,96,0.00,,,1.65,Wunderground v.1.15,2013-06-28 03:42:00,
2013-06-27 23:49:00,64.4,63.2,29.64,NW,307,0.0,0.0,96,0.00,,,1.65,Wunderground v.1.15,2013-06-28 03:49:00,
2013-06-27 23:55:00,64.4,63.2,29.64,NW,307,0.0,0.0,96,0.00,,,1.65,Wunderground v.1.15,2013-06-28 03:55:00,